createdAt,value
2018-07-15T00:00:29.011Z,3.90
2018-07-15T00:02:58.042Z,4.10
2018-07-15T00:05:27.061Z,4.17
2018-07-15T00:07:56.040Z,3.90
2018-07-15T00:10:25.065Z,4.43
2018-07-15T00:12:54.118Z,4.20
2018-07-15T00:15:23.185Z,4.77
2018-07-15T00:17:52.360Z,4.20
2018-07-15T00:20:21.326Z,4.33
2018-07-15T00:22:50.340Z,4.83
2018-07-15T00:25:19.316Z,4.10
2018-07-15T00:27:48.336Z,4.77
2018-07-15T00:30:17.391Z,4.87
2018-07-15T00:32:46.406Z,3.90
2018-07-15T00:35:15.436Z,4.60
2018-07-15T00:37:44.424Z,4.37
2018-07-15T00:40:13.514Z,3.83
2018-07-15T00:42:42.478Z,4.77
2018-07-15T00:45:11.457Z,4.97
2018-07-15T00:47:40.484Z,4.17
2018-07-15T00:50:09.565Z,4.70
2018-07-15T00:52:38.543Z,4.47
2018-07-15T00:55:07.499Z,3.70
2018-07-15T00:57:36.496Z,4.17
2018-07-15T01:00:05.756Z,4.50
2018-07-15T01:02:35.022Z,3.80
2018-07-15T01:05:03.989Z,4.50
2018-07-15T01:07:33.020Z,4.23
2018-07-15T01:10:02.340Z,3.70
2018-07-15T01:12:31.311Z,3.87
2018-07-15T01:15:00.287Z,4.70
2018-07-15T01:17:29.249Z,4.67
2018-07-15T01:19:58.252Z,4.67
2018-07-15T01:22:27.230Z,4.10
2018-07-15T01:24:56.312Z,4.10
2018-07-15T01:27:25.399Z,4.60
2018-07-15T01:29:54.409Z,4.60
2018-07-15T01:32:23.395Z,4.87
2018-07-15T01:34:52.485Z,4.30
2018-07-15T01:37:21.448Z,4.40
2018-07-15T01:39:50.457Z,6.10
2018-07-15T01:42:19.441Z,4.83
2018-07-15T01:44:48.518Z,4.90
2018-07-15T01:47:17.645Z,4.47
2018-07-15T01:49:46.697Z,4.60
2018-07-15T01:52:15.727Z,5.00
2018-07-15T01:54:44.753Z,4.50
2018-07-15T01:57:13.842Z,5.77
2018-07-15T01:59:42.933Z,4.50
2018-07-15T02:02:11.932Z,4.80
2018-07-15T02:04:41.010Z,5.20
2018-07-15T02:07:09.989Z,4.70
2018-07-15T02:09:39.101Z,4.90
2018-07-15T02:12:08.092Z,5.00
2018-07-15T02:14:37.122Z,5.47
2018-07-15T02:17:06.111Z,5.00
2018-07-15T02:19:35.084Z,5.30
2018-07-15T02:22:04.118Z,4.40
2018-07-15T02:24:33.167Z,4.93
2018-07-15T02:27:02.198Z,5.20
2018-07-15T02:29:31.160Z,5.07
2018-07-15T02:32:00.312Z,4.83
2018-07-15T02:34:29.329Z,5.30
2018-07-15T02:36:58.301Z,4.60
2018-07-15T02:39:27.391Z,4.53
2018-07-15T02:41:56.361Z,4.80
2018-07-15T02:44:25.398Z,4.93
2018-07-15T02:46:54.370Z,4.60
2018-07-15T02:49:23.446Z,4.97
2018-07-15T02:51:52.494Z,5.00
2018-07-15T02:54:21.529Z,4.63
2018-07-15T02:56:50.530Z,4.93
2018-07-15T02:59:19.539Z,5.40
2018-07-15T03:01:48.540Z,4.60
2018-07-15T03:04:17.561Z,5.07
2018-07-15T03:06:46.753Z,4.47
2018-07-15T03:09:15.785Z,5.90
2018-07-15T03:11:44.809Z,5.60
2018-07-15T03:14:13.835Z,5.70
2018-07-15T03:16:42.918Z,5.07
2018-07-15T03:19:11.942Z,5.53
2018-07-15T03:21:41.030Z,5.03
2018-07-15T03:24:10.144Z,5.73
2018-07-15T03:26:39.102Z,4.80
2018-07-15T03:29:08.064Z,5.00
2018-07-15T03:31:37.029Z,5.17
2018-07-15T03:34:06.166Z,5.10
2018-07-15T03:36:35.121Z,5.60
2018-07-15T03:39:04.881Z,6.00
2018-07-15T03:41:33.850Z,5.47
2018-07-15T03:44:02.807Z,4.63
2018-07-15T03:46:31.805Z,4.30
2018-07-15T03:49:00.839Z,5.53
2018-07-15T03:51:29.919Z,6.20
2018-07-15T03:53:58.949Z,6.63
2018-07-15T03:56:28.000Z,6.33
2018-07-15T03:58:57.065Z,10.97
2018-07-15T04:01:26.108Z,7.27
2018-07-15T04:03:55.070Z,5.90
2018-07-15T04:06:24.052Z,6.77
2018-07-15T04:08:53.995Z,5.90
2018-07-15T04:11:22.971Z,8.40
2018-07-15T04:13:52.104Z,7.80
2018-07-15T04:16:21.134Z,6.73
2018-07-15T04:18:50.197Z,5.17
2018-07-15T04:21:19.225Z,5.00
2018-07-15T04:23:48.366Z,5.13
2018-07-15T04:26:17.404Z,5.27
2018-07-15T04:28:46.348Z,4.37
2018-07-15T04:31:15.322Z,3.70
2018-07-15T04:33:44.334Z,4.27
2018-07-15T04:36:13.356Z,4.37
2018-07-15T04:38:42.381Z,4.20
2018-07-15T04:41:11.372Z,4.20
2018-07-15T04:43:40.438Z,4.43
2018-07-15T04:46:09.476Z,4.87
2018-07-15T04:48:38.524Z,4.10
2018-07-15T04:51:07.525Z,3.63
2018-07-15T04:53:36.606Z,3.57
2018-07-15T04:56:05.577Z,3.87
2018-07-15T04:58:34.624Z,4.10
2018-07-15T05:01:03.812Z,3.90
2018-07-15T05:03:32.881Z,3.70
2018-07-15T05:06:02.030Z,3.40
2018-07-15T05:08:31.125Z,3.67
2018-07-15T05:11:00.092Z,3.67
2018-07-15T05:13:29.075Z,5.72
2018-07-15T05:15:58.048Z,4.90
2018-07-15T05:18:27.060Z,3.87
2018-07-15T05:20:56.016Z,4.40
2018-07-15T05:23:24.998Z,3.97
2018-07-15T05:25:54.029Z,4.07
2018-07-15T05:28:23.049Z,4.80
2018-07-15T05:30:52.065Z,3.53
2018-07-15T05:33:21.062Z,3.17
2018-07-15T05:35:50.020Z,4.20
2018-07-15T05:38:19.078Z,3.20
2018-07-15T05:40:48.037Z,3.40
2018-07-15T05:43:17.060Z,3.20
2018-07-15T05:45:46.147Z,3.23
2018-07-15T05:48:15.131Z,4.10
2018-07-15T05:50:44.060Z,3.85
2018-07-15T05:53:13.136Z,3.45
2018-07-15T05:55:42.110Z,3.77
2018-07-15T05:58:11.179Z,3.15
2018-07-15T06:00:40.213Z,3.87
2018-07-15T06:03:09.167Z,3.55
2018-07-15T06:05:38.208Z,4.37
2018-07-15T06:08:07.178Z,3.62
2018-07-15T06:10:36.300Z,3.83
2018-07-15T06:13:05.296Z,3.52
2018-07-15T06:15:34.382Z,3.65
2018-07-15T06:18:03.425Z,4.08
2018-07-15T06:20:32.504Z,4.17
2018-07-15T06:23:01.529Z,4.00
2018-07-15T06:25:30.508Z,3.03
2018-07-15T06:27:59.584Z,3.80
2018-07-15T06:30:28.577Z,4.03
2018-07-15T06:32:57.524Z,4.10
2018-07-15T06:35:26.562Z,4.00
2018-07-15T06:37:55.518Z,3.70
2018-07-15T06:40:24.510Z,3.73
2018-07-15T06:42:53.449Z,4.50
2018-07-15T06:45:22.535Z,3.80
2018-07-15T06:47:51.606Z,3.70
2018-07-15T06:50:20.656Z,4.23
2018-07-15T06:52:49.766Z,3.97
2018-07-15T06:55:18.846Z,3.93
2018-07-15T06:57:47.840Z,3.73
2018-07-15T07:00:16.896Z,3.97
2018-07-15T07:02:45.926Z,3.93
2018-07-15T07:05:14.925Z,4.40
2018-07-15T07:07:44.000Z,4.50
2018-07-15T07:10:12.935Z,4.30
2018-07-15T07:12:42.021Z,4.23
2018-07-15T07:15:10.972Z,3.50
2018-07-15T07:17:39.932Z,4.20
2018-07-15T07:20:08.901Z,4.50
2018-07-15T07:22:37.984Z,4.10
2018-07-15T07:25:07.134Z,3.97
2018-07-15T07:27:36.120Z,4.67
2018-07-15T07:30:05.120Z,5.60
2018-07-15T07:32:34.261Z,4.00
2018-07-15T07:35:03.318Z,4.60
2018-07-15T07:37:32.276Z,3.93
2018-07-15T07:40:01.346Z,4.13
2018-07-15T07:42:30.374Z,3.60
2018-07-15T07:44:59.400Z,3.60
2018-07-15T07:47:28.385Z,3.83
2018-07-15T07:49:57.766Z,3.90
2018-07-15T07:52:26.865Z,4.70
2018-07-15T07:54:55.848Z,3.83
2018-07-15T07:57:24.890Z,4.07
2018-07-15T07:59:53.909Z,4.47
2018-07-15T08:02:22.911Z,4.77
2018-07-15T08:04:51.994Z,5.17
2018-07-15T08:07:21.066Z,3.90
2018-07-15T08:09:50.104Z,3.77
2018-07-15T08:12:19.095Z,4.20
2018-07-15T08:14:48.071Z,3.80
2018-07-15T08:17:17.102Z,3.70
2018-07-15T08:19:46.136Z,4.40
2018-07-15T08:22:15.093Z,3.17
2018-07-15T08:24:44.179Z,3.90
2018-07-15T08:27:13.153Z,4.17
2018-07-15T08:30:52.518Z,4.37
2018-07-15T08:33:21.632Z,4.10
2018-07-15T08:35:50.661Z,3.17
2018-07-15T08:38:19.710Z,3.53
2018-07-15T08:40:48.810Z,2.80
2018-07-15T08:43:17.750Z,3.33
2018-07-15T08:45:46.824Z,3.70
2018-07-15T08:48:15.805Z,3.60
2018-07-15T08:50:44.881Z,4.03
2018-07-15T08:53:13.892Z,3.60
2018-07-15T08:55:43.253Z,3.67
2018-07-15T08:58:12.308Z,3.80
2018-07-15T09:00:41.332Z,3.77
2018-07-15T09:03:10.291Z,4.47
2018-07-15T09:05:39.300Z,3.10
2018-07-15T09:08:08.524Z,3.17
2018-07-15T09:10:37.952Z,3.83
2018-07-15T09:13:06.972Z,3.20
2018-07-15T09:15:36.093Z,3.80
2018-07-15T09:18:05.180Z,3.13
2018-07-15T09:20:34.253Z,3.80
2018-07-15T09:23:03.245Z,3.60
2018-07-15T09:25:32.189Z,3.30
2018-07-15T09:28:01.263Z,3.00
2018-07-15T09:30:30.217Z,3.83
2018-07-15T09:32:59.226Z,3.37
2018-07-15T09:35:28.376Z,4.07
2018-07-15T09:37:57.416Z,3.60
2018-07-15T09:40:26.404Z,3.90
2018-07-15T09:42:55.460Z,3.63
2018-07-15T09:45:24.541Z,3.60
2018-07-15T09:47:53.524Z,3.60
2018-07-15T09:50:22.549Z,3.67
2018-07-15T09:52:51.581Z,3.50
2018-07-15T09:55:20.678Z,3.90
2018-07-15T09:57:49.753Z,3.27
2018-07-15T10:00:24.017Z,2.60
2018-07-15T10:02:53.024Z,2.90
2018-07-15T10:05:22.009Z,3.00
2018-07-15T10:07:51.026Z,2.80
2018-07-15T10:10:20.080Z,2.90
2018-07-15T10:12:49.196Z,3.43
2018-07-15T10:15:18.285Z,2.73
2018-07-15T10:17:47.317Z,2.60
2018-07-15T10:20:16.277Z,2.63
2018-07-15T10:22:45.264Z,2.77
2018-07-15T10:25:14.277Z,3.00
2018-07-15T10:27:43.235Z,3.33
2018-07-15T10:30:12.228Z,2.90
2018-07-15T10:32:41.312Z,2.90
2018-07-15T10:35:10.400Z,2.67
2018-07-15T10:37:39.348Z,2.75
2018-07-15T10:40:08.479Z,2.93
2018-07-15T10:42:37.492Z,2.30
2018-07-15T10:45:06.465Z,2.70
2018-07-15T10:47:35.486Z,2.40
2018-07-15T10:50:04.460Z,2.75
2018-07-15T10:52:33.436Z,3.02
2018-07-15T10:55:02.481Z,2.30
2018-07-15T10:57:31.526Z,2.00
2018-07-15T11:00:00.512Z,3.05
2018-07-15T11:02:29.481Z,2.37
2018-07-15T11:04:58.560Z,2.20
2018-07-15T11:07:27.551Z,2.55
2018-07-15T11:09:56.589Z,2.50
2018-07-15T11:12:25.608Z,2.20
2018-07-15T11:14:54.632Z,2.00
2018-07-15T11:17:23.705Z,2.30
2018-07-15T11:19:52.796Z,2.47
2018-07-15T11:22:21.986Z,2.55
2018-07-15T11:24:50.907Z,2.08
2018-07-15T11:27:19.945Z,2.60
2018-07-15T11:29:48.898Z,2.58
2018-07-15T11:32:17.873Z,2.33
2018-07-15T11:34:46.873Z,2.47
2018-07-15T11:37:15.902Z,2.60
2018-07-15T11:39:44.957Z,2.02
2018-07-15T11:42:14.017Z,2.83
2018-07-15T11:44:43.571Z,1.98
2018-07-15T11:47:12.987Z,2.87
2018-07-15T11:49:42.084Z,2.42
2018-07-15T11:52:11.048Z,2.00
2018-07-15T11:54:40.170Z,1.70
2018-07-15T11:57:09.082Z,2.98
2018-07-15T11:59:38.128Z,2.77
2018-07-15T12:02:07.160Z,2.47
2018-07-15T12:04:36.203Z,2.25
2018-07-15T12:07:05.275Z,2.80
2018-07-15T12:09:34.333Z,2.17
2018-07-15T12:12:03.325Z,2.20
2018-07-15T12:14:32.389Z,2.33
2018-07-15T12:17:01.412Z,2.80
2018-07-15T12:19:30.477Z,1.98
2018-07-15T12:21:59.529Z,2.02
2018-07-15T12:24:28.480Z,1.80
2018-07-15T12:26:57.664Z,1.87
2018-07-15T12:29:26.677Z,2.77
2018-07-15T12:31:55.744Z,2.00
2018-07-15T12:34:24.812Z,2.02
2018-07-15T12:36:53.813Z,2.60
2018-07-15T12:39:22.844Z,1.77
2018-07-15T12:41:51.865Z,2.22
2018-07-15T12:44:20.840Z,2.10
2018-07-15T12:46:49.846Z,2.00
2018-07-15T12:49:18.880Z,1.50
2018-07-15T12:51:47.830Z,2.00
2018-07-15T12:54:16.805Z,2.08
2018-07-15T12:56:45.851Z,1.77
2018-07-15T12:59:14.935Z,2.05
2018-07-15T13:01:43.979Z,1.80
2018-07-15T13:04:12.944Z,2.00
2018-07-15T13:06:42.021Z,1.80
2018-07-15T13:09:11.013Z,1.50
2018-07-15T13:11:40.101Z,1.80
2018-07-15T13:14:09.165Z,1.77
2018-07-15T13:16:38.132Z,1.70
2018-07-15T13:19:07.107Z,1.90
2018-07-15T13:21:36.130Z,1.55
2018-07-15T13:24:05.131Z,1.72
2018-07-15T13:27:04.958Z,2.17
2018-07-15T13:29:33.976Z,1.80
2018-07-15T13:32:02.924Z,2.10
2018-07-15T13:34:31.941Z,2.30
2018-07-15T13:37:00.902Z,1.80
2018-07-15T13:39:29.981Z,2.17
2018-07-15T13:41:59.073Z,2.15
2018-07-15T13:44:28.025Z,1.85
2018-07-15T13:46:56.988Z,2.50
2018-07-15T13:49:26.023Z,1.65
2018-07-15T13:51:54.996Z,2.25
2018-07-15T13:54:24.140Z,2.62
2018-07-15T13:56:53.224Z,1.50
2018-07-15T13:59:22.184Z,2.27
2018-07-15T14:01:51.200Z,2.25
2018-07-15T14:04:20.373Z,2.55
2018-07-15T14:06:49.428Z,2.27
2018-07-15T14:09:18.659Z,2.30
2018-07-15T14:11:47.613Z,2.73
2018-07-15T14:14:16.652Z,2.27
2018-07-15T14:16:45.619Z,5.40
2018-07-15T14:19:14.617Z,4.70
2018-07-15T14:21:43.613Z,7.13
2018-07-15T14:24:12.837Z,4.77
2018-07-15T14:26:41.897Z,2.70
2018-07-15T14:29:10.857Z,2.50
2018-07-15T14:31:39.868Z,3.07
2018-07-15T14:34:08.883Z,2.70
2018-07-15T14:36:37.868Z,7.70
2018-07-15T14:39:07.354Z,3.20
2018-07-15T14:41:36.347Z,2.63
2018-07-15T14:44:07.353Z,3.00
2018-07-15T14:46:36.496Z,3.00
2018-07-15T14:49:05.445Z,2.37
2018-07-15T14:51:34.475Z,2.70
2018-07-15T14:54:03.463Z,3.20
2018-07-15T14:56:32.444Z,2.57
2018-07-15T14:59:01.416Z,2.93
2018-07-15T15:01:30.444Z,3.00
2018-07-15T15:03:59.549Z,2.90
2018-07-15T15:06:28.573Z,3.20
2018-07-15T15:08:57.615Z,3.07
2018-07-15T15:11:26.691Z,3.20
2018-07-15T15:13:55.700Z,3.07
2018-07-15T15:16:24.764Z,3.23
2018-07-15T15:18:53.902Z,3.00
2018-07-15T15:21:23.038Z,2.57
2018-07-15T15:23:52.079Z,3.00
2018-07-15T15:26:21.066Z,3.03
2018-07-15T15:28:50.157Z,3.10
2018-07-15T15:31:19.185Z,3.80
2018-07-15T15:33:48.205Z,3.80
2018-07-15T15:36:17.225Z,2.90
2018-07-15T15:38:46.190Z,3.77
2018-07-15T15:41:15.146Z,3.50
2018-07-15T15:43:44.113Z,3.60
2018-07-15T15:46:13.137Z,3.13
2018-07-15T15:48:42.145Z,3.10
2018-07-15T15:51:11.124Z,3.43
2018-07-15T15:53:40.152Z,3.90
2018-07-15T15:56:09.168Z,4.10
2018-07-15T15:58:38.125Z,4.00
2018-07-15T16:01:07.100Z,3.40
2018-07-15T16:03:36.141Z,3.60
2018-07-15T16:06:05.196Z,3.77
2018-07-15T16:08:34.182Z,3.37
2018-07-15T16:11:03.261Z,3.87
2018-07-15T16:13:32.278Z,3.40
2018-07-15T16:16:01.393Z,3.87
2018-07-15T16:18:30.448Z,3.57
2018-07-15T16:20:59.465Z,3.70
2018-07-15T16:23:28.457Z,3.93
2018-07-15T16:25:57.439Z,3.77
2018-07-15T16:28:26.492Z,4.27
2018-07-15T16:30:56.017Z,4.63
2018-07-15T16:33:25.040Z,8.90
2018-07-15T16:35:53.983Z,4.03
2018-07-15T16:38:23.009Z,8.00
2018-07-15T16:40:51.988Z,7.10
2018-07-15T16:43:20.956Z,5.77
2018-07-15T16:45:50.012Z,7.03
2018-07-15T16:48:19.089Z,6.40
2018-07-15T16:50:48.112Z,4.70
2018-07-15T16:53:17.043Z,3.60
2018-07-15T16:55:46.163Z,4.00
2018-07-15T16:58:15.224Z,4.47
2018-07-15T17:00:44.184Z,5.63
2018-07-15T17:03:13.187Z,8.03
2018-07-15T17:05:42.169Z,6.40
2018-07-15T17:08:11.147Z,7.77
2018-07-15T17:10:40.161Z,4.60
2018-07-15T17:13:09.188Z,4.63
2018-07-15T17:15:38.201Z,5.33
2018-07-15T17:18:07.272Z,5.40
2018-07-15T17:20:36.369Z,3.93
2018-07-15T17:23:05.438Z,5.33
2018-07-15T17:25:34.498Z,4.53
2018-07-15T17:28:03.776Z,4.30
2018-07-15T17:30:32.826Z,4.30
2018-07-15T17:33:01.801Z,3.80
2018-07-15T17:35:30.846Z,3.90
2018-07-15T17:37:59.879Z,4.23
2018-07-15T17:40:28.926Z,4.67
2018-07-15T17:42:58.003Z,5.00
2018-07-15T17:45:26.968Z,4.47
2018-07-15T17:47:55.999Z,4.17
2018-07-15T17:50:25.379Z,5.30
2018-07-15T17:52:54.451Z,5.10
2018-07-15T17:55:23.464Z,5.17
2018-07-15T17:57:52.537Z,4.87
2018-07-15T18:00:21.530Z,4.87
2018-07-15T18:02:50.531Z,4.87
2018-07-15T18:05:50.388Z,5.03
2018-07-15T18:08:19.345Z,4.70
2018-07-15T18:10:48.807Z,5.30
2018-07-15T18:13:18.009Z,5.33
2018-07-15T18:15:47.119Z,4.83
2018-07-15T18:18:16.190Z,5.70
2018-07-15T18:20:45.253Z,5.50
2018-07-15T18:23:14.252Z,5.40
2018-07-15T18:25:43.280Z,5.93
2018-07-15T18:28:12.341Z,5.10
2018-07-15T18:30:41.402Z,6.60
2018-07-15T18:33:10.585Z,6.00
2018-07-15T18:35:39.662Z,6.07
2018-07-15T18:38:08.711Z,4.57
2018-07-15T18:40:37.769Z,5.07
2018-07-15T18:43:06.728Z,5.90
2018-07-15T18:45:35.716Z,6.50
2018-07-15T18:48:04.691Z,6.83
2018-07-15T18:50:33.778Z,5.60
2018-07-15T18:53:02.851Z,6.03
2018-07-15T18:55:31.920Z,5.57
2018-07-15T18:58:01.000Z,4.83
2018-07-15T19:00:30.050Z,4.87
2018-07-15T19:02:59.037Z,4.87
2018-07-15T19:05:28.066Z,5.43
2018-07-15T19:07:57.125Z,5.87
2018-07-15T19:10:26.098Z,4.67
2018-07-15T19:12:55.417Z,5.13
2018-07-15T19:15:24.456Z,4.37
2018-07-15T19:17:53.494Z,4.27
2018-07-15T19:20:22.588Z,4.60
2018-07-15T19:22:51.601Z,4.07
2018-07-15T19:25:20.624Z,4.30
2018-07-15T19:27:49.681Z,4.60
2018-07-15T19:30:18.738Z,4.40
2018-07-15T19:32:47.826Z,5.00
2018-07-15T19:35:16.802Z,4.60
2018-07-15T19:37:45.768Z,4.67
2018-07-15T19:40:14.787Z,4.03
2018-07-15T19:42:43.887Z,4.63
2018-07-15T19:45:12.924Z,4.67
2018-07-15T19:47:41.990Z,4.63
2018-07-15T19:50:11.113Z,5.20
2018-07-15T19:52:40.085Z,4.70
2018-07-15T19:55:09.024Z,4.27
2018-07-15T19:57:38.005Z,4.13
2018-07-15T20:00:07.120Z,3.97
2018-07-15T20:02:36.130Z,4.33
2018-07-15T20:05:05.160Z,5.40
2018-07-15T20:07:34.293Z,4.03
2018-07-15T20:10:03.256Z,3.67
2018-07-15T20:12:32.346Z,4.43
2018-07-15T20:15:01.389Z,4.80
2018-07-15T20:17:30.413Z,4.33
2018-07-15T20:19:59.526Z,4.60
2018-07-15T20:22:28.500Z,5.87
2018-07-15T20:24:57.678Z,4.33
2018-07-15T20:27:26.746Z,4.60
2018-07-15T20:29:55.728Z,6.17
2018-07-15T20:32:24.781Z,5.47
2018-07-15T20:34:53.919Z,5.37
2018-07-15T20:37:22.975Z,5.67
2018-07-15T20:39:52.095Z,4.70
2018-07-15T20:42:21.232Z,4.83
2018-07-15T20:44:50.273Z,4.90
2018-07-15T20:47:19.253Z,4.80
2018-07-15T20:49:48.285Z,5.40
2018-07-15T20:52:17.340Z,4.47
2018-07-15T20:54:46.465Z,4.40
2018-07-15T20:57:15.610Z,4.50
2018-07-15T20:59:44.656Z,4.57
2018-07-15T21:02:13.762Z,5.47
2018-07-15T21:04:42.760Z,5.37
2018-07-15T21:07:11.805Z,5.60
2018-07-15T21:09:40.826Z,6.10
2018-07-15T21:12:09.924Z,5.40
2018-07-15T21:14:38.908Z,5.77
2018-07-15T21:17:08.064Z,5.30
2018-07-15T21:19:37.026Z,6.10
2018-07-15T21:22:06.070Z,5.30
2018-07-15T21:24:35.066Z,5.20
2018-07-15T21:27:04.171Z,4.80
2018-07-15T21:32:16.738Z,5.57
2018-07-15T21:34:45.789Z,4.80
2018-07-15T21:37:14.795Z,5.20
2018-07-15T21:39:43.830Z,5.00
2018-07-15T21:42:12.889Z,6.30
2018-07-15T21:44:41.967Z,5.60
2018-07-15T21:47:11.010Z,4.93
2018-07-15T21:49:39.980Z,5.30
2018-07-15T21:52:09.117Z,5.70
2018-07-15T21:54:38.088Z,5.60
2018-07-15T21:57:07.221Z,5.67
2018-07-15T21:59:36.301Z,5.37
2018-07-15T22:02:05.384Z,5.27
2018-07-15T22:04:34.437Z,5.77
2018-07-15T22:07:14.481Z,5.47
2018-07-15T22:09:55.568Z,5.73
2018-07-15T22:12:24.563Z,5.30
2018-07-15T22:14:53.709Z,4.57
2018-07-15T22:17:22.795Z,5.50
2018-07-15T22:19:51.885Z,5.80
2018-07-15T22:22:20.937Z,4.30
2018-07-15T22:24:49.895Z,6.13
2018-07-15T22:27:18.961Z,5.10
2018-07-15T22:29:47.972Z,4.90
2018-07-15T22:32:17.012Z,5.53
2018-07-15T22:34:45.968Z,4.77
2018-07-15T22:37:14.929Z,6.10
2018-07-15T22:39:44.139Z,5.23
2018-07-15T22:42:13.161Z,5.87
2018-07-15T22:44:42.130Z,5.30
2018-07-15T22:47:11.092Z,5.50
2018-07-15T22:49:40.139Z,6.10
2018-07-15T22:52:09.153Z,5.60
2018-07-15T22:54:38.141Z,5.50
2018-07-15T22:57:07.222Z,5.10
2018-07-15T22:59:36.329Z,6.03
2018-07-15T23:02:05.342Z,5.40
2018-07-15T23:05:50.104Z,5.87
2018-07-15T23:08:19.100Z,5.87
2018-07-15T23:10:48.082Z,6.50
2018-07-15T23:13:17.541Z,5.50
2018-07-15T23:15:46.686Z,6.90
2018-07-15T23:18:15.759Z,6.57
2018-07-15T23:20:45.472Z,6.43
2018-07-15T23:23:14.931Z,5.80
2018-07-15T23:25:43.941Z,5.70
2018-07-15T23:28:14.077Z,5.97
2018-07-15T23:30:43.965Z,6.20
2018-07-15T23:33:13.164Z,6.30
2018-07-15T23:35:42.174Z,5.77
2018-07-15T23:38:11.268Z,6.27
2018-07-15T23:40:40.354Z,5.43
2018-07-15T23:43:09.494Z,5.60
2018-07-15T23:45:38.477Z,6.90
2018-07-15T23:48:07.577Z,6.07
2018-07-15T23:50:36.665Z,6.07
2018-07-15T23:53:05.760Z,4.90
2018-07-15T23:55:34.758Z,5.70
2018-07-15T23:58:03.755Z,5.43
